Time;durP1;ratioP1;P1;durP2;ratioP2;P2;SDS_P1;SDS_P2;PMS_P1;PMS_P2;Temp;Humidity;BMP_temperature;BMP_pressure;BME280_temperature;BME280_humidity;BME280_pressure;Samples;Min_cycle;Max_cycle;Signal;HPM_P1;HPM_P2
2023/01/11 00:01:17;;;;;;;8.30;4.25;;;;;;;5.17;61.53;101004.56;4976068;28;20434;-88
2023/01/11 00:03:43;;;;;;;8.98;4.18;;;;;;;5.39;61.49;100995.88;4976125;28;20039;-87
2023/01/11 00:06:10;;;;;;;9.55;4.13;;;;;;;5.36;61.50;100993.50;4976434;28;20045;-91
2023/01/11 00:08:36;;;;;;;11.75;4.50;;;;;;;5.13;64.18;100984.75;4976720;28;20094;-91
2023/01/11 00:11:02;;;;;;;10.35;4.63;;;;;;;5.02;66.15;100986.47;4961247;28;20073;-88
2023/01/11 00:13:29;;;;;;;11.88;5.43;;;;;;;5.22;66.60;100981.41;4976363;28;20074;-86
2023/01/11 00:15:54;;;;;;;13.48;6.00;;;;;;;4.97;69.15;100980.75;4975363;28;20513;-89
2023/01/11 00:18:20;;;;;;;9.25;4.85;;;;;;;5.08;68.75;100989.50;4975978;28;20035;-90
2023/01/11 00:20:46;;;;;;;12.25;4.70;;;;;;;5.01;68.70;100982.19;4975630;28;20046;-86
2023/01/11 00:23:11;;;;;;;8.02;4.05;;;;;;;4.94;69.30;100986.25;4958147;28;20035;-87
2023/01/11 00:25:37;;;;;;;7.88;4.03;;;;;;;4.94;67.95;100975.75;4974984;28;20035;-87
2023/01/11 00:28:03;;;;;;;8.18;4.43;;;;;;;4.97;68.45;100983.38;4975309;28;20446;-86
2023/01/11 00:30:29;;;;;;;7.50;3.58;;;;;;;4.84;69.22;100982.63;4958358;28;20053;-88
2023/01/11 00:32:59;;;;;;;6.63;3.20;;;;;;;5.02;68.54;100983.84;4974567;28;20389;-85
2023/01/11 00:35:26;;;;;;;7.82;3.67;;;;;;;5.22;68.02;100984.03;4975326;28;20118;-85
2023/01/11 00:37:53;;;;;;;8.02;3.63;;;;;;;5.22;67.26;100991.06;4958097;28;20046;-84
2023/01/11 00:40:20;;;;;;;8.27;3.47;;;;;;;5.39;66.52;100993.25;4957755;28;20434;-86
2023/01/11 00:48:17;;;;;;;5.93;3.00;;;;;;;5.01;63.78;100992.69;4961389;28;20047;-89
2023/01/11 00:50:42;;;;;;;6.63;2.88;;;;;;;5.02;65.10;101010.13;4975947;28;20027;-87
2023/01/11 00:53:08;;;;;;;5.18;2.60;;;;;;;5.01;63.46;101014.53;4958839;28;20569;-88
2023/01/11 00:55:35;;;;;;;3.97;2.10;;;;;;;4.93;64.73;101010.81;4976537;28;20042;-86
2023/01/11 00:58:00;;;;;;;4.95;2.20;;;;;;;5.21;63.98;100999.91;4977478;28;20027;-87
2023/01/11 01:00:30;;;;;;;5.45;2.50;;;;;;;5.31;63.16;101005.28;4963783;28;20066;-88
2023/01/11 01:02:59;;;;;;;8.48;2.53;;;;;;;5.44;63.47;101009.50;4984436;28;20062;-86
2023/01/11 01:05:25;;;;;;;6.38;2.10;;;;;;;5.40;63.37;101004.63;4981471;28;20045;-84
2023/01/11 01:07:51;;;;;;;4.75;2.50;;;;;;;5.51;62.58;101018.59;4985090;28;20026;-86
2023/01/11 01:10:17;;;;;;;4.80;2.55;;;;;;;5.45;63.34;101007.72;4980889;28;20119;-87
2023/01/11 01:15:30;;;;;;;6.15;2.95;;;;;;;4.84;67.12;101007.06;4981925;28;20381;-87
2023/01/11 01:17:56;;;;;;;6.00;3.05;;;;;;;5.02;67.52;101005.72;4963821;28;20030;-90
2023/01/11 01:20:23;;;;;;;5.43;3.03;;;;;;;4.93;67.89;101002.94;4981341;28;20039;-88
2023/01/11 01:22:51;;;;;;;8.32;3.40;;;;;;;4.66;70.59;100998.78;4984770;28;20066;-86
2023/01/11 01:25:17;;;;;;;7.22;3.67;;;;;;;4.56;70.30;100997.78;4995711;28;20031;-90
2023/01/11 01:27:42;;;;;;;8.70;4.55;;;;;;;4.27;72.66;100992.97;4964508;28;20397;-85
2023/01/11 01:30:09;;;;;;;8.55;4.05;;;;;;;4.46;72.62;100988.06;4988400;28;20035;-87
2023/01/11 01:32:34;;;;;;;7.13;3.53;;;;;;;4.49;73.22;100990.47;4987842;28;20035;-85
2023/01/11 01:35:00;;;;;;;8.63;3.72;;;;;;;4.54;72.08;100993.59;4988794;28;20027;-84
2023/01/11 01:37:26;;;;;;;9.23;3.65;;;;;;;4.60;72.02;100988.75;4983404;28;20045;-89
2023/01/11 01:39:51;;;;;;;9.15;3.63;;;;;;;4.40;73.74;100994.59;4979108;28;20039;-88
2023/01/11 01:42:19;;;;;;;5.97;3.20;;;;;;;4.63;72.98;100991.13;4979116;28;20093;-87
2023/01/11 01:44:58;;;;;;;5.82;2.90;;;;;;;4.39;74.22;100984.19;4979298;28;20030;-89
2023/01/11 01:47:32;;;;;;;8.18;3.15;;;;;;;4.55;73.15;100990.84;4979094;28;20041;-87
2023/01/11 01:50:05;;;;;;;8.63;3.30;;;;;;;4.30;73.21;100979.63;4979141;28;20035;-89
2023/01/11 01:52:34;;;;;;;;;;;;;;;4.45;72.67;100989.00;4978943;28;20536;-88
2023/01/11 01:55:07;;;;;;;8.50;4.10;;;;;;;4.30;74.19;100990.13;4979779;28;19921;-85
2023/01/11 01:57:36;;;;;;;13.80;3.97;;;;;;;4.28;73.57;100977.09;4979350;28;20034;-88
2023/01/11 02:00:06;;;;;;;12.23;4.68;;;;;;;4.36;72.89;100976.56;4961640;28;20458;-89
2023/01/11 02:02:37;;;;;;;13.30;5.70;;;;;;;4.31;74.17;100982.13;4962148;28;20123;-89
2023/01/11 02:05:04;;;;;;;16.05;5.60;;;;;;;4.25;75.16;100982.56;4945389;28;20038;-90
2023/01/11 02:07:32;;;;;;;14.32;5.97;;;;;;;4.32;74.81;100986.44;4961236;28;20097;-88
2023/01/11 02:09:58;;;;;;;13.07;5.97;;;;;;;4.51;73.80;100976.25;4980087;28;20141;-86
2023/01/11 02:12:26;;;;;;;15.55;5.57;;;;;;;4.35;74.06;100974.88;4983202;28;20470;-87
2023/01/11 02:14:53;;;;;;;7.72;4.30;;;;;;;4.46;73.37;100973.16;4983704;28;20043;-84
2023/01/11 02:17:20;;;;;;;9.35;3.60;;;;;;;4.36;73.24;100980.03;4990324;28;20039;-87
2023/01/11 02:20:01;;;;;;;8.23;3.85;;;;;;;4.47;73.45;100985.34;4986074;28;20035;-89
2023/01/11 02:23:01;;;;;;;8.30;3.50;;;;;;;4.64;72.67;100990.16;4984879;28;20099;-86
2023/01/11 02:25:45;;;;;;;8.73;3.58;;;;;;;4.43;71.58;100976.00;4988823;28;20057;-84
2023/01/11 02:28:18;;;;;;;4.85;2.58;;;;;;;4.25;72.83;100977.31;4998435;28;20039;-84
2023/01/11 02:30:57;;;;;;;4.90;2.53;;;;;;;4.05;73.16;100970.03;4996681;28;20030;-84
2023/01/11 02:33:33;;;;;;;4.07;2.50;;;;;;;3.96;75.75;100954.97;4996029;28;20179;-84
2023/01/11 02:36:24;;;;;;;6.18;3.22;;;;;;;4.12;75.25;100960.78;4995270;28;20137;-82
2023/01/11 02:39:02;;;;;;;6.05;3.03;;;;;;;4.41;73.40;100953.47;4998449;28;20034;-85
2023/01/11 02:45:15;;;;;;;5.65;2.58;;;;;;;4.50;72.61;100948.38;4998512;28;20039;-86
2023/01/11 02:47:50;;;;;;;6.30;2.50;;;;;;;4.77;70.67;100952.53;4901825;29;20056;-86
2023/01/11 02:50:21;;;;;;;5.68;2.65;;;;;;;4.65;69.67;100949.84;4901256;29;20068;-83
2023/01/11 02:52:53;;;;;;;4.38;2.22;;;;;;;4.85;70.25;100945.72;4886701;29;20105;-86
2023/01/11 02:55:25;;;;;;;4.15;1.90;;;;;;;4.93;69.58;100951.25;4881753;29;20045;-91
2023/01/11 02:57:56;;;;;;;4.63;2.30;;;;;;;5.05;69.78;100952.09;4943699;28;20062;-88
2023/01/11 03:00:23;;;;;;;4.28;1.70;;;;;;;5.07;68.16;100955.47;4960991;28;20039;-90
2023/01/11 03:03:18;;;;;;;2.90;1.70;;;;;;;4.98;68.50;100954.34;4978127;28;20027;-88
2023/01/11 03:05:53;;;;;;;2.72;1.88;;;;;;;4.92;68.49;100956.59;4977803;28;20082;-87
2023/01/11 03:08:43;;;;;;;3.47;1.88;;;;;;;4.90;69.42;100948.03;4972935;28;20042;-88
2023/01/11 03:12:50;;;;;;;7.32;2.13;;;;;;;4.77;70.06;100947.28;4977705;28;20494;-86
2023/01/11 03:14:48;;;;;;;5.78;2.83;;;;;;;4.73;71.48;100951.06;4977601;28;20040;-91
2023/01/11 03:17:25;;;;;;;5.03;2.45;;;;;;;4.80;70.10;100953.13;4978289;28;20042;-85
2023/01/11 03:20:43;;;;;;;7.30;3.28;;;;;;;4.94;71.67;100950.28;4978302;28;20171;-89
2023/01/11 03:23:32;;;;;;;13.13;3.72;;;;;;;4.74;72.58;100958.00;4884506;29;20503;-88
2023/01/11 03:26:10;;;;;;;6.82;3.22;;;;;;;4.63;73.25;100946.50;4899201;29;20048;-88
2023/01/11 03:28:53;;;;;;;4.93;2.97;;;;;;;4.29;74.55;100942.06;4898970;29;20085;-89
2023/01/11 03:31:33;;;;;;;6.38;3.17;;;;;;;4.16;75.93;100946.50;4899496;29;20424;-90
2023/01/11 03:34:05;;;;;;;5.68;2.75;;;;;;;4.19;76.55;100948.91;4937961;28;20046;-89
2023/01/11 03:36:39;;;;;;;3.97;2.40;;;;;;;4.22;77.14;100946.06;4960345;28;20394;-87
2023/01/11 03:39:14;;;;;;;6.18;2.55;;;;;;;4.21;77.65;100943.56;4960243;28;20469;-88
2023/01/11 03:41:42;;;;;;;5.43;2.35;;;;;;;4.25;74.67;100934.50;4977405;28;20038;-88
2023/01/11 03:44:11;;;;;;;4.07;2.00;;;;;;;4.26;76.63;100929.16;4976964;28;20534;-87
2023/01/11 03:46:44;;;;;;;5.65;2.72;;;;;;;4.20;76.31;100940.09;4976480;28;20565;-88
2023/01/11 03:49:12;;;;;;;;;;;;;;;4.28;75.20;100940.38;4960087;28;20046;-87
2023/01/11 03:51:42;;;;;;;8.65;4.25;;;;;;;4.15;75.91;100934.34;4959792;28;19957;-89
2023/01/11 03:54:12;;;;;;;7.13;3.33;;;;;;;4.22;75.75;100932.94;4977416;28;20486;-90
2023/01/11 03:56:51;;;;;;;5.05;2.55;;;;;;;3.95;77.67;100933.16;4977265;28;20409;-90
2023/01/11 03:59:16;;;;;;;4.40;2.17;;;;;;;3.91;77.83;100926.44;4977059;28;20030;-90
2023/01/11 04:01:42;;;;;;;8.48;3.10;;;;;;;3.80;79.86;100923.78;4977269;28;20493;-89
2023/01/11 04:04:08;;;;;;;4.43;1.95;;;;;;;3.76;79.94;100926.72;4976491;28;20163;-90
2023/01/11 04:06:36;;;;;;;3.17;2.10;;;;;;;3.85;80.52;100926.03;4976858;28;20046;-89
2023/01/11 04:09:02;;;;;;;4.22;1.95;;;;;;;3.82;78.69;100931.50;4959332;28;20037;-89
2023/01/11 04:11:28;;;;;;;1.73;1.25;;;;;;;3.61;78.49;100939.94;4976838;28;20033;-89
2023/01/11 04:13:57;;;;;;;3.67;1.50;;;;;;;3.64;78.96;100936.28;4976949;28;20065;-89
2023/01/11 04:16:22;;;;;;;2.30;1.42;;;;;;;3.59;81.16;100936.59;4960691;28;20034;-86
2023/01/11 04:18:47;;;;;;;1.73;1.30;;;;;;;3.76;80.47;100926.72;4965407;28;20097;-86
2023/01/11 04:21:13;;;;;;;2.75;1.30;;;;;;;4.00;78.91;100940.69;4985033;28;20026;-88
2023/01/11 04:23:39;;;;;;;2.92;1.65;;;;;;;4.18;78.55;100926.25;4963084;28;20034;-88
2023/01/11 04:26:04;;;;;;;2.67;1.65;;;;;;;4.06;79.13;100929.75;4977650;28;20553;-89
2023/01/11 04:28:30;;;;;;;4.15;1.98;;;;;;;3.92;81.78;100941.25;4959643;28;20461;-90
2023/01/11 04:30:55;;;;;;;1.80;1.33;;;;;;;4.03;81.15;100935.22;4959510;28;20038;-89
2023/01/11 04:33:21;;;;;;;3.08;1.63;;;;;;;3.78;82.75;100940.56;4976495;28;20179;-89
2023/01/11 04:35:48;;;;;;;1.52;1.10;;;;;;;3.82;82.12;100939.38;4978981;28;20066;-88
2023/01/11 04:38:15;;;;;;;6.72;1.70;;;;;;;3.99;81.62;100933.78;4985364;28;20469;-88
2023/01/11 04:40:40;;;;;;;3.22;1.60;;;;;;;4.24;79.60;100935.47;4986829;28;20074;-87
2023/01/11 04:43:05;;;;;;;2.40;1.50;;;;;;;4.18;80.00;100939.34;4983751;28;20062;-87
2023/01/11 04:45:31;;;;;;;2.60;1.50;;;;;;;4.27;79.93;100938.72;4963512;28;20034;-89
2023/01/11 04:47:57;;;;;;;4.88;1.77;;;;;;;4.32;78.84;100941.81;4980581;28;20042;-86
2023/01/11 04:50:24;;;;;;;5.53;1.90;;;;;;;4.26;79.36;100944.91;4979884;28;20606;-90
2023/01/11 04:52:50;;;;;;;7.03;2.38;;;;;;;4.25;79.99;100945.84;4980350;28;20042;-90
2023/01/11 04:55:15;;;;;;;11.55;3.33;;;;;;;4.24;80.80;100946.81;4979948;28;20485;-89
2023/01/11 04:57:43;;;;;;;8.27;3.05;;;;;;;4.32;79.75;100936.56;4980733;28;20467;-87
2023/01/11 05:00:09;;;;;;;7.30;3.30;;;;;;;4.32;79.91;100931.34;4962602;28;20054;-89
2023/01/11 05:02:39;;;;;;;5.75;2.10;;;;;;;4.49;79.00;100938.81;4979601;28;20042;-88
2023/01/11 05:05:06;;;;;;;5.82;2.13;;;;;;;4.62;78.51;100939.56;4979946;28;20524;-86
2023/01/11 05:07:32;;;;;;;6.10;2.30;;;;;;;4.54;78.64;100931.41;4946971;28;20035;-88
2023/01/11 05:09:57;;;;;;;8.98;3.05;;;;;;;4.67;77.12;100929.56;4980714;28;20039;-87
2023/01/11 05:12:23;;;;;;;7.30;2.90;;;;;;;4.58;76.76;100924.16;4981155;28;20477;-88
2023/01/11 05:14:49;;;;;;;9.35;3.63;;;;;;;4.73;76.27;100924.81;4978696;28;20058;-87
2023/01/11 05:17:15;;;;;;;10.52;4.00;;;;;;;4.74;74.15;100937.00;4961947;28;20031;-87
2023/01/11 05:19:41;;;;;;;10.05;4.38;;;;;;;4.74;74.53;100934.38;4979541;28;20031;-86
2023/01/11 05:22:08;;;;;;;11.88;4.97;;;;;;;4.46;73.85;100939.03;4979120;28;20034;-84
2023/01/11 05:24:34;;;;;;;16.30;5.13;;;;;;;4.48;74.68;100947.63;4979002;28;20031;-86
2023/01/11 05:26:59;;;;;;;10.43;4.93;;;;;;;4.67;76.64;100944.50;4979584;28;20046;-89
2023/01/11 05:29:25;;;;;;;10.05;4.63;;;;;;;4.75;75.95;100933.41;4979202;28;20117;-90
2023/01/11 05:31:50;;;;;;;16.45;4.95;;;;;;;4.81;75.68;100933.78;4961538;28;20478;-88
2023/01/11 05:34:16;;;;;;;14.10;5.63;;;;;;;4.84;75.74;100943.25;4979608;28;20082;-88
2023/01/11 05:36:43;;;;;;;11.13;5.10;;;;;;;4.95;75.80;100940.63;4980876;28;20031;-88
2023/01/11 05:39:13;;;;;;;16.77;6.30;;;;;;;4.58;73.66;100932.88;4961969;28;20094;-87
2023/01/11 05:41:42;;;;;;;12.73;4.35;;;;;;;4.42;72.72;100942.00;4979078;28;20038;-86
2023/01/11 05:46:55;;;;;;;7.35;2.60;;;;;;;4.29;72.61;100942.06;4978408;28;20478;-87
2023/01/11 05:49:20;;;;;;;6.05;2.35;;;;;;;4.14;72.31;100943.19;4960936;28;20133;-86
2023/01/11 05:51:46;;;;;;;3.97;2.17;;;;;;;3.91;71.96;100944.00;4978232;28;20102;-83
2023/01/11 05:54:13;;;;;;;6.20;1.98;;;;;;;3.90;71.23;100932.66;4976555;28;20046;-84
2023/01/11 05:56:41;;;;;;;9.43;1.60;;;;;;;3.95;69.56;100942.81;4970611;28;20035;-85
2023/01/11 05:59:12;;;;;;;3.08;1.35;;;;;;;3.79;70.50;100942.22;4975470;28;20509;-84
2023/01/11 06:01:38;;;;;;;2.40;1.52;;;;;;;3.59;71.41;100947.09;4977101;28;20154;-85
2023/01/11 06:04:04;;;;;;;5.18;1.38;;;;;;;3.52;72.34;100942.38;4960016;28;20027;-85
2023/01/11 06:06:29;;;;;;;2.47;1.27;;;;;;;3.68;73.88;100924.63;4960232;28;20039;-84
2023/01/11 06:08:57;;;;;;;2.70;1.45;;;;;;;3.61;73.25;100932.06;4977702;28;20039;-85
2023/01/11 06:11:23;;;;;;;2.90;1.30;;;;;;;3.59;73.86;100933.97;4976406;28;20073;-86
2023/01/11 06:13:51;;;;;;;3.90;1.77;;;;;;;3.53;74.35;100937.03;4978064;28;20039;-85
2023/01/11 06:16:19;;;;;;;3.65;1.33;;;;;;;3.28;75.11;100939.66;4977862;28;20031;-87
2023/01/11 06:18:47;;;;;;;1.73;1.35;;;;;;;3.20;76.47;100934.13;4978291;28;20070;-87
2023/01/11 06:21:12;;;;;;;4.05;1.70;;;;;;;3.40;77.83;100933.59;4977881;28;20033;-84
2023/01/11 06:23:42;;;;;;;3.05;1.70;;;;;;;3.77;80.11;100950.22;4980246;28;20030;-88
2023/01/11 06:26:15;;;;;;;3.83;1.98;;;;;;;3.86;75.78;100953.94;4985299;28;20099;-84
2023/01/11 06:28:42;;;;;;;4.30;1.77;;;;;;;3.98;74.50;100963.56;4987759;28;20043;-87
2023/01/11 06:31:08;;;;;;;4.75;1.80;;;;;;;4.11;74.97;100956.47;4986707;28;20098;-89
2023/01/11 06:33:34;;;;;;;2.42;1.45;;;;;;;3.99;71.91;100966.09;4986929;28;20027;-89
2023/01/11 06:36:06;;;;;;;6.40;1.95;;;;;;;4.17;72.46;100971.81;4969251;28;20057;-86
2023/01/11 06:38:31;;;;;;;6.10;2.25;;;;;;;4.24;74.88;100959.09;4961372;28;20038;-86
2023/01/11 06:40:59;;;;;;;5.10;1.77;;;;;;;4.31;73.40;100970.81;4976941;28;20034;-87
2023/01/11 06:43:26;;;;;;;4.47;1.80;;;;;;;4.51;72.61;100978.88;4977597;28;20097;-85
2023/01/11 06:45:52;;;;;;;5.95;2.13;;;;;;;4.30;71.25;100977.84;4983052;28;20031;-87
2023/01/11 06:48:19;;;;;;;7.38;2.10;;;;;;;4.31;71.42;100971.63;4982059;28;20446;-84
2023/01/11 06:50:52;;;;;;;14.85;2.22;;;;;;;4.08;71.96;100975.06;4976733;28;20113;-86
2023/01/11 06:53:19;;;;;;;4.55;2.00;;;;;;;4.27;72.61;100975.44;4975513;28;20071;-87
2023/01/11 06:55:48;;;;;;;7.72;2.22;;;;;;;4.22;71.19;100980.16;4974610;28;20038;-85
2023/01/11 06:58:17;;;;;;;7.93;2.60;;;;;;;4.32;72.54;100968.06;4975582;28;20034;-86
2023/01/11 07:00:42;;;;;;;9.48;2.50;;;;;;;4.34;70.65;100963.53;4975765;28;20029;-83
2023/01/11 07:03:10;;;;;;;17.30;2.58;;;;;;;4.44;68.78;100961.91;4977643;28;20047;-84
2023/01/11 07:05:35;;;;;;;12.13;2.47;;;;;;;5.00;67.84;100959.50;4977266;28;20394;-83
2023/01/11 07:08:01;;;;;;;6.35;2.53;;;;;;;4.84;64.30;100954.56;4957787;28;20041;-84
2023/01/11 07:10:27;;;;;;;6.55;2.15;;;;;;;4.83;63.77;100959.94;4975418;28;20031;-83
2023/01/11 07:12:54;;;;;;;7.38;2.60;;;;;;;4.91;65.03;100953.16;4976134;28;20031;-83
2023/01/11 07:15:20;;;;;;;10.70;3.53;;;;;;;4.76;66.69;100948.22;4977324;28;20037;-85
2023/01/11 07:17:48;;;;;;;8.35;3.50;;;;;;;4.63;68.14;100943.88;4976782;28;20516;-83
2023/01/11 07:20:14;;;;;;;7.30;3.17;;;;;;;4.75;69.58;100947.38;4977411;28;20039;-83
2023/01/11 07:22:40;;;;;;;10.32;2.80;;;;;;;4.83;69.33;100946.81;4979390;28;20025;-89
2023/01/11 07:25:06;;;;;;;17.13;3.53;;;;;;;5.10;69.20;100957.88;4978490;28;20039;-84
2023/01/11 07:27:31;;;;;;;12.80;4.15;;;;;;;5.07;66.16;100963.34;4975697;28;20038;-85
2023/01/11 07:30:00;;;;;;;9.55;3.40;;;;;;;4.95;68.76;100957.22;4978218;28;20039;-85
2023/01/11 07:32:26;;;;;;;21.35;4.70;;;;;;;5.26;69.13;100970.66;4975966;28;20030;-86
2023/01/11 07:34:53;;;;;;;9.57;3.90;;;;;;;5.22;67.80;100975.31;4975496;28;20053;-84
2023/01/11 07:37:19;;;;;;;8.98;3.17;;;;;;;5.38;67.74;100975.81;4975478;28;20102;-85
2023/01/11 07:39:45;;;;;;;8.23;3.10;;;;;;;5.62;66.14;100989.69;4975527;28;20038;-86
2023/01/11 07:44:55;;;;;;;12.07;3.63;;;;;;;5.32;64.83;100999.94;4976678;28;20042;-84
2023/01/11 07:47:20;;;;;;;9.90;2.92;;;;;;;5.38;64.31;101002.09;4976521;28;20045;-86
2023/01/11 07:49:46;;;;;;;6.90;2.65;;;;;;;5.57;62.95;101009.38;4977769;28;20102;-85
2023/01/11 07:52:11;;;;;;;7.28;2.30;;;;;;;5.72;61.58;101003.81;4975643;28;20046;-84
2023/01/11 07:54:37;;;;;;;5.60;2.30;;;;;;;6.02;60.58;101002.38;4959870;28;20063;-86
2023/01/11 07:57:02;;;;;;;6.95;2.53;;;;;;;6.46;58.55;101012.00;4976007;28;20039;-87
2023/01/11 07:59:29;;;;;;;8.00;2.33;;;;;;;6.62;57.79;101013.28;4958898;28;20035;-84
2023/01/11 08:01:55;;;;;;;6.95;2.80;;;;;;;6.18;58.17;101018.63;4976764;28;20177;-87
2023/01/11 08:04:21;;;;;;;6.80;2.53;;;;;;;6.59;57.95;101024.06;4981730;28;20047;-83
2023/01/11 08:06:46;;;;;;;7.50;3.40;;;;;;;6.85;57.44;101003.47;4982117;28;20035;-84
2023/01/11 08:09:12;;;;;;;7.75;3.08;;;;;;;6.86;57.58;101005.13;4982176;28;20423;-86
2023/01/11 08:14:39;;;;;;;8.95;2.63;;;;;;;7.10;57.17;100989.94;4978319;28;20090;-85
2023/01/11 08:17:17;;;;;;;9.05;2.83;;;;;;;7.15;57.91;100994.81;4977499;28;20042;-80
2023/01/11 08:19:43;;;;;;;6.68;2.88;;;;;;;6.54;59.03;100993.78;4989963;28;20072;-84
2023/01/11 08:22:09;;;;;;;6.00;3.40;;;;;;;6.75;59.91;101007.84;4982141;28;20147;-85
2023/01/11 08:24:35;;;;;;;9.00;3.08;;;;;;;6.43;60.07;100999.91;4995142;28;20039;-90
2023/01/11 08:27:01;;;;;;;10.30;3.80;;;;;;;6.93;62.23;101000.19;4981691;28;20041;-85
2023/01/11 08:29:27;;;;;;;11.27;3.97;;;;;;;6.89;60.64;100993.53;4981682;28;20030;-87
2023/01/11 08:31:53;;;;;;;11.57;4.97;;;;;;;7.28;61.26;100995.47;4965719;28;20505;-84
2023/01/11 08:34:18;;;;;;;11.18;3.88;;;;;;;7.50;59.27;101002.38;4978832;28;20039;-86
2023/01/11 08:36:44;;;;;;;8.70;3.95;;;;;;;7.58;58.14;101011.34;4979525;28;20037;-87
2023/01/11 08:39:13;;;;;;;10.68;4.95;;;;;;;7.58;59.54;101002.56;4980082;28;20046;-88
2023/01/11 08:41:38;;;;;;;9.75;4.30;;;;;;;7.13;57.65;101007.28;4977803;28;20042;-88
2023/01/11 08:44:05;;;;;;;11.00;4.60;;;;;;;7.09;57.51;101011.16;4978597;28;20034;-87
2023/01/11 08:46:32;;;;;;;11.63;4.30;;;;;;;6.71;57.86;101007.25;4977632;28;20041;-89
2023/01/11 08:49:02;;;;;;;6.82;3.60;;;;;;;6.52;57.80;101017.63;4977421;28;20546;-88
2023/01/11 08:51:28;;;;;;;8.77;3.25;;;;;;;6.45;58.02;101024.31;4977562;28;20118;-88
2023/01/11 08:53:53;;;;;;;7.05;3.40;;;;;;;6.35;58.70;101012.03;4960054;28;20122;-87
2023/01/11 08:56:19;;;;;;;10.38;3.38;;;;;;;6.44;60.01;101020.00;4977464;28;20030;-87
2023/01/11 08:58:44;;;;;;;6.57;3.20;;;;;;;6.34;60.51;101032.25;4978628;28;20046;-88
2023/01/11 09:01:11;;;;;;;14.50;3.55;;;;;;;6.15;61.87;101029.41;4961438;28;20066;-87
2023/01/11 09:03:37;;;;;;;14.93;3.90;;;;;;;6.21;62.95;101031.53;4981923;28;20043;-88
2023/01/11 09:06:02;;;;;;;7.72;2.85;;;;;;;6.18;62.29;101029.16;4966868;28;20049;-87
2023/01/11 09:08:29;;;;;;;10.40;3.08;;;;;;;6.23;62.15;101027.81;4965090;28;20031;-90
2023/01/11 09:10:55;;;;;;;11.25;2.88;;;;;;;6.19;62.31;101036.94;4971071;28;20062;-86
2023/01/11 09:13:22;;;;;;;8.48;2.85;;;;;;;6.00;62.73;101033.25;4981807;28;20042;-87
2023/01/11 09:15:50;;;;;;;10.20;2.95;;;;;;;6.07;64.15;101042.31;4982118;28;20058;-88
2023/01/11 09:18:16;;;;;;;6.07;2.35;;;;;;;6.31;63.54;101050.06;4980571;28;20035;-89
2023/01/11 09:20:41;;;;;;;6.60;2.85;;;;;;;6.44;62.86;101040.22;4946248;28;20112;-87
2023/01/11 09:23:10;;;;;;;9.02;2.35;;;;;;;6.67;63.77;101042.69;4978813;28;20469;-87
2023/01/11 09:25:35;;;;;;;5.50;2.72;;;;;;;6.82;61.92;101045.06;4979812;28;20035;-88
2023/01/11 09:28:01;;;;;;;4.40;2.53;;;;;;;7.04;60.79;101050.22;4979409;28;20441;-87
2023/01/11 09:30:26;;;;;;;4.53;2.40;;;;;;;7.01;59.88;101047.84;4978506;28;20464;-88
2023/01/11 09:32:53;;;;;;;6.00;2.63;;;;;;;7.01;59.14;101058.38;4978734;28;20054;-89
2023/01/11 09:35:18;;;;;;;5.20;2.13;;;;;;;7.09;59.34;101050.69;4945581;28;20030;-87
2023/01/11 09:37:49;;;;;;;5.22;2.40;;;;;;;7.16;58.86;101059.75;4979528;28;20045;-88
2023/01/11 09:40:22;;;;;;;5.25;2.40;;;;;;;7.50;57.98;101053.34;4978886;28;20043;-86
2023/01/11 09:42:52;;;;;;;10.38;2.30;;;;;;;7.40;56.37;101062.13;4979231;28;20049;-87
2023/01/11 09:45:22;;;;;;;4.15;2.17;;;;;;;7.29;54.98;101057.78;4978050;28;20042;-88
2023/01/11 09:48:14;;;;;;;4.72;2.28;;;;;;;7.39;54.31;101050.75;4978216;28;20035;-87
2023/01/11 09:50:44;;;;;;;4.28;1.90;;;;;;;7.22;54.36;101053.97;4961592;28;20057;-89
2023/01/11 09:53:34;;;;;;;6.68;2.45;;;;;;;7.23;54.22;101039.81;4978078;28;20035;-88
2023/01/11 09:56:03;;;;;;;12.73;2.40;;;;;;;7.22;54.02;101048.72;4977698;28;20047;-88
2023/01/11 09:58:53;;;;;;;7.63;2.70;;;;;;;7.26;54.12;101050.09;4977526;28;20035;-88
2023/01/11 10:01:37;;;;;;;4.80;2.17;;;;;;;7.29;53.96;101055.16;4961159;28;20118;-87
2023/01/11 10:04:19;;;;;;;4.32;2.20;;;;;;;7.34;53.13;101054.75;4977293;28;20065;-90
2023/01/11 10:07:09;;;;;;;5.15;1.88;;;;;;;7.54;52.78;101053.91;4977972;28;20051;-89
2023/01/11 10:09:54;;;;;;;3.30;1.77;;;;;;;7.62;53.49;101047.00;4960767;28;20046;-86
2023/01/11 10:13:08;;;;;;;4.43;2.17;;;;;;;7.41;55.26;101040.94;4959975;28;20039;-88
2023/01/11 10:15:52;;;;;;;8.63;2.63;;;;;;;7.43;55.10;101044.25;4917598;29;20096;-85
2023/01/11 10:18:42;;;;;;;9.07;2.47;;;;;;;7.58;55.14;101042.97;4917332;29;20112;-88
2023/01/11 10:21:14;;;;;;;6.95;1.90;;;;;;;7.69;52.99;101040.25;4917227;29;20044;-89
2023/01/11 10:24:13;;;;;;;6.45;2.50;;;;;;;7.74;53.14;101042.50;4917889;29;20036;-87
2023/01/11 10:26:40;;;;;;;7.10;2.60;;;;;;;7.46;53.78;101051.06;4959381;28;20046;-88
2023/01/11 10:32:11;;;;;;;8.50;2.63;;;;;;;7.59;54.43;101042.00;4976165;28;20101;-87
2023/01/11 10:43:11;;;;;;;12.23;3.88;;;;;;;7.92;52.49;101032.19;4978259;28;20402;-87
2023/01/11 10:45:45;;;;;;;15.10;5.55;;;;;;;8.04;53.31;101025.81;4978539;28;20031;-86
2023/01/11 10:48:19;;;;;;;10.80;4.60;;;;;;;8.06;54.16;101019.44;4959159;28;20038;-89
2023/01/11 10:51:10;;;;;;;11.75;4.43;;;;;;;8.17;54.46;101015.88;4975881;28;20417;-87
2023/01/11 10:54:15;;;;;;;11.07;5.45;;;;;;;8.31;53.31;101023.44;4950265;28;20527;-89
2023/01/11 10:56:51;;;;;;;8.38;3.92;;;;;;;8.34;53.19;101017.91;4959695;28;20039;-89
2023/01/11 10:59:35;;;;;;;10.05;4.40;;;;;;;8.49;53.08;101018.31;4942718;28;20109;-88
2023/01/11 11:02:38;;;;;;;9.43;4.30;;;;;;;8.68;53.47;101005.97;4977164;28;20043;-88
2023/01/11 11:05:38;;;;;;;10.68;5.22;;;;;;;8.71;53.52;100999.59;4960054;28;20070;-86
2023/01/11 11:08:12;;;;;;;8.77;4.50;;;;;;;8.75;53.90;100996.53;4937669;28;20039;-87
2023/01/11 11:10:56;;;;;;;8.95;4.88;;;;;;;8.58;53.95;100994.59;4981331;28;20066;-88
2023/01/11 11:14:17;;;;;;;11.82;4.35;;;;;;;8.63;55.06;100989.72;4984832;28;20035;-87
2023/01/11 11:17:13;;;;;;;11.70;5.65;;;;;;;8.92;54.67;100986.22;4985057;28;20130;-88
2023/01/11 11:19:59;;;;;;;11.82;5.90;;;;;;;9.01;53.37;100990.69;4982186;28;20046;-87
2023/01/11 11:22:25;;;;;;;10.15;5.60;;;;;;;9.07;53.18;100988.31;4981486;28;20035;-87
2023/01/11 11:25:02;;;;;;;11.13;6.10;;;;;;;9.04;55.03;100985.13;4948048;28;20489;-86
2023/01/11 11:27:43;;;;;;;11.77;5.78;;;;;;;9.11;56.39;100980.94;4990284;28;20057;-85
2023/01/11 11:30:14;;;;;;;14.85;5.43;;;;;;;9.02;57.12;100973.84;4993485;28;20366;-87
2023/01/11 11:32:53;;;;;;;18.65;6.13;;;;;;;8.83;58.54;100980.81;4979356;28;20026;-85
2023/01/11 11:35:40;;;;;;;12.18;6.47;;;;;;;8.88;59.90;100984.84;4962048;28;20023;-85
2023/01/11 11:38:20;;;;;;;13.63;6.43;;;;;;;8.78;59.79;100985.66;4977763;28;20042;-86
2023/01/11 11:40:56;;;;;;;16.45;7.68;;;;;;;8.74;58.54;100984.31;4997607;28;20039;-86
2023/01/11 11:43:23;;;;;;;18.83;8.25;;;;;;;8.77;59.59;100986.66;4978528;28;20045;-86
2023/01/11 11:45:54;;;;;;;19.73;7.75;;;;;;;8.82;58.86;100976.50;4979518;28;20031;-86
2023/01/11 11:48:21;;;;;;;12.02;7.30;;;;;;;8.93;58.99;100958.81;4978393;28;20023;-87
2023/01/11 11:51:02;;;;;;;13.85;7.38;;;;;;;8.98;59.39;100959.25;4967579;28;20114;-87
2023/01/11 11:53:54;;;;;;;12.40;7.18;;;;;;;9.18;60.17;100952.97;4981661;28;20053;-86
2023/01/11 11:56:29;;;;;;;16.80;8.07;;;;;;;9.16;62.97;100958.38;4980762;28;20081;-87
2023/01/11 11:58:57;;;;;;;17.23;8.75;;;;;;;9.28;63.18;100956.38;4980708;28;20039;-87
2023/01/11 12:01:32;;;;;;;16.95;7.03;;;;;;;9.29;62.46;100942.19;4964435;28;20038;-87
2023/01/11 12:04:19;;;;;;;26.05;7.93;;;;;;;9.26;63.32;100938.03;4982996;28;20110;-90
2023/01/11 12:07:22;;;;;;;15.82;7.63;;;;;;;9.30;61.88;100933.28;4984703;28;20042;-87
2023/01/11 12:09:59;;;;;;;14.05;7.25;;;;;;;9.34;61.48;100930.22;4985828;28;20042;-84
2023/01/11 12:12:25;;;;;;;18.58;7.80;;;;;;;9.31;61.34;100924.38;4983484;28;20043;-90
2023/01/11 12:15:12;;;;;;;20.60;7.40;;;;;;;9.31;60.30;100917.25;4985618;28;20022;-86
2023/01/11 12:17:43;;;;;;;15.75;6.95;;;;;;;9.34;60.65;100914.34;4987259;28;20062;-87
2023/01/11 12:20:23;;;;;;;14.05;7.40;;;;;;;9.38;58.66;100920.16;4985599;28;20043;-89
2023/01/11 12:23:25;;;;;;;12.50;6.53;;;;;;;9.20;58.13;100911.31;4977761;28;20042;-86